createdAt,value
2024-04-22T00:01:36.333Z,99.90
2024-04-22T00:06:38.605Z,99.90
2024-04-22T00:11:40.988Z,99.90
2024-04-22T00:16:43.025Z,99.90
2024-04-22T00:21:44.937Z,99.90
2024-04-22T00:26:46.764Z,99.90
2024-04-22T00:31:48.609Z,99.90
2024-04-22T00:36:50.575Z,99.90
2024-04-22T00:41:53.328Z,99.90
2024-04-22T00:46:55.749Z,99.90
2024-04-22T00:51:57.745Z,99.90
2024-04-22T00:56:59.536Z,99.90
2024-04-22T01:02:01.836Z,99.90
2024-04-22T01:07:04.794Z,99.90
2024-04-22T01:12:07.023Z,99.90
2024-04-22T01:17:08.891Z,99.90
2024-04-22T01:22:10.681Z,99.90
2024-04-22T01:27:12.817Z,99.90
2024-04-22T01:32:14.631Z,99.90
2024-04-22T01:37:16.615Z,99.90
2024-04-22T01:42:18.720Z,99.90
2024-04-22T01:47:20.631Z,99.90
2024-04-22T01:52:22.704Z,99.90
2024-04-22T01:57:24.775Z,99.90
2024-04-22T02:02:26.639Z,99.90
2024-04-22T02:07:28.821Z,99.90
2024-04-22T02:12:30.726Z,99.90
2024-04-22T02:17:32.729Z,99.90
2024-04-22T02:22:34.587Z,99.90
2024-04-22T02:27:36.569Z,99.90
2024-04-22T02:32:38.423Z,99.90
2024-04-22T02:37:40.310Z,99.90
2024-04-22T02:42:42.175Z,99.90
2024-04-22T02:47:44.071Z,99.90
2024-04-22T02:52:46.224Z,99.90
2024-04-22T02:57:48.088Z,99.90
2024-04-22T03:02:50.010Z,99.90
2024-04-22T03:07:52.286Z,99.90
2024-04-22T03:12:54.135Z,99.90
2024-04-22T03:17:55.922Z,99.90
2024-04-22T03:22:57.939Z,99.90
2024-04-22T03:27:59.734Z,99.90
2024-04-22T03:33:01.619Z,99.90
2024-04-22T03:38:03.516Z,99.90
2024-04-22T03:43:05.488Z,99.90
2024-04-22T03:48:26.219Z,99.90
2024-04-22T03:53:28.036Z,99.90
2024-04-22T03:58:29.870Z,99.90
2024-04-22T04:03:31.820Z,99.90
2024-04-22T04:08:33.919Z,99.90
2024-04-22T04:13:35.806Z,99.90
2024-04-22T04:18:41.812Z,99.90
2024-04-22T04:23:43.666Z,99.90
2024-04-22T04:28:49.363Z,99.90
2024-04-22T04:33:51.262Z,99.90
2024-04-22T04:38:53.120Z,99.90
2024-04-22T04:43:54.909Z,99.90
2024-04-22T04:48:57.119Z,99.90
2024-04-22T04:53:58.938Z,99.90
2024-04-22T04:59:00.867Z,99.90
2024-04-22T05:04:03.952Z,99.90
2024-04-22T05:09:05.917Z,99.90
2024-04-22T05:14:08.187Z,99.90
2024-04-22T05:19:10.033Z,99.90
2024-04-22T05:24:12.279Z,99.90
2024-04-22T05:29:14.732Z,99.90
2024-04-22T05:34:35.640Z,99.90
2024-04-22T05:39:37.738Z,99.90
2024-04-22T05:44:39.603Z,99.90
2024-04-22T05:49:41.610Z,99.90
2024-04-22T05:54:43.506Z,99.90
2024-04-22T05:59:45.354Z,99.90
2024-04-22T06:04:47.238Z,99.90
2024-04-22T06:09:49.085Z,99.90
2024-04-22T06:14:51.961Z,99.90
2024-04-22T06:19:53.768Z,99.90
2024-04-22T06:24:55.762Z,99.90
2024-04-22T06:29:57.632Z,99.90
2024-04-22T06:34:59.484Z,99.90
2024-04-22T06:40:01.337Z,99.90
2024-04-22T06:45:03.294Z,99.90
2024-04-22T06:50:05.406Z,99.90
2024-04-22T06:55:08.266Z,99.90
2024-04-22T07:00:10.876Z,99.90
2024-04-22T07:05:13.412Z,99.90
2024-04-22T07:10:15.498Z,99.90
2024-04-22T07:15:19.801Z,99.90
2024-04-22T07:20:21.767Z,99.90
2024-04-22T07:25:23.637Z,99.90
2024-04-22T07:30:26.273Z,99.90
2024-04-22T07:35:28.935Z,99.90
2024-04-22T07:40:31.423Z,99.90
2024-04-22T07:45:33.764Z,99.90
2024-04-22T07:50:37.026Z,99.90
2024-04-22T07:55:39.271Z,99.90
2024-04-22T08:00:41.609Z,99.90
2024-04-22T08:05:43.718Z,99.90
2024-04-22T08:10:45.986Z,99.90
2024-04-22T08:15:48.862Z,99.90
2024-04-22T08:20:50.772Z,99.90
2024-04-22T08:25:53.873Z,99.90
2024-04-22T08:31:05.877Z,99.90
2024-04-22T08:36:08.689Z,99.90
2024-04-22T08:41:16.229Z,99.90
2024-04-22T08:46:19.036Z,99.90
2024-04-22T08:51:21.794Z,99.90
2024-04-22T08:56:25.371Z,99.90
2024-04-22T09:01:30.476Z,99.90
2024-04-22T09:06:32.360Z,99.90
2024-04-22T09:11:58.134Z,99.90
2024-04-22T09:16:57.284Z,98.80
2024-04-22T09:22:00.677Z,97.30
2024-04-22T09:27:02.583Z,98.00
2024-04-22T09:32:11.285Z,97.50
2024-04-22T09:37:13.770Z,98.80
2024-04-22T09:42:16.470Z,96.80
2024-04-22T09:47:20.765Z,98.50
2024-04-22T09:52:24.212Z,96.50
2024-04-22T09:57:28.767Z,94.80
2024-04-22T10:02:31.089Z,94.20
2024-04-22T10:07:33.134Z,94.80
2024-04-22T10:12:35.128Z,94.40
2024-04-22T10:17:37.351Z,93.80
2024-04-22T10:22:39.974Z,93.70
2024-04-22T10:27:42.049Z,94.30
2024-04-22T10:32:44.128Z,95.20
2024-04-22T10:37:46.470Z,95.80
2024-04-22T10:42:51.224Z,96.00
2024-04-22T10:48:05.042Z,96.30
2024-04-22T10:53:14.006Z,95.30
2024-04-22T10:58:16.546Z,94.80
2024-04-22T11:03:18.560Z,94.20
2024-04-22T11:08:20.894Z,94.70
2024-04-22T11:13:23.675Z,95.20
2024-04-22T11:18:25.571Z,95.00
2024-04-22T11:23:27.591Z,93.00
2024-04-22T11:28:30.960Z,92.10
2024-04-22T11:33:32.939Z,92.20
2024-04-22T11:38:34.779Z,92.80
2024-04-22T11:43:36.853Z,91.30
2024-04-22T11:48:39.924Z,91.00
2024-04-22T11:53:41.987Z,91.70
2024-04-22T11:58:44.019Z,92.10
2024-04-22T12:03:45.919Z,91.90
2024-04-22T12:08:47.811Z,93.00
2024-04-22T12:13:49.749Z,91.30
2024-04-22T12:18:51.613Z,92.20
2024-04-22T12:23:53.450Z,91.40
2024-04-22T12:28:55.540Z,93.20
2024-04-22T12:34:06.658Z,93.70
2024-04-22T12:39:14.263Z,93.00
2024-04-22T12:44:16.167Z,93.30
2024-04-22T12:49:36.995Z,93.50
2024-04-22T12:54:40.180Z,93.50
2024-04-22T12:59:42.077Z,90.20
2024-04-22T13:04:44.014Z,88.20
2024-04-22T13:09:46.324Z,90.70
2024-04-22T13:14:48.171Z,91.30
2024-04-22T13:19:50.251Z,92.20
2024-04-22T13:24:52.923Z,92.20
2024-04-22T13:29:54.730Z,93.10
2024-04-22T13:34:57.135Z,91.30
2024-04-22T13:39:59.050Z,89.20
2024-04-22T13:45:01.037Z,91.00
2024-04-22T13:50:03.114Z,90.40
2024-04-22T13:55:06.728Z,91.30
2024-04-22T14:00:12.209Z,91.50
2024-04-22T14:05:16.224Z,91.60
2024-04-22T14:10:18.219Z,91.00
2024-04-22T14:15:20.166Z,91.10
2024-04-22T14:20:22.241Z,92.40
2024-04-22T14:25:24.365Z,92.00
2024-04-22T14:30:26.255Z,92.00
2024-04-22T14:35:28.061Z,91.30
2024-04-22T14:40:29.955Z,89.90
2024-04-22T14:45:32.085Z,91.20
2024-04-22T14:50:33.956Z,90.50
2024-04-22T14:55:39.719Z,91.70
2024-04-22T15:00:41.608Z,92.20
2024-04-22T15:05:43.559Z,92.60
2024-04-22T15:10:53.176Z,91.80
2024-04-22T15:15:55.183Z,89.60
2024-04-22T15:20:57.059Z,90.20
2024-04-22T15:25:59.022Z,90.70
2024-04-22T15:31:02.880Z,91.00
2024-04-22T15:36:07.006Z,83.90
2024-04-22T15:41:09.035Z,83.90
2024-04-22T15:46:12.572Z,87.30
2024-04-22T15:51:15.041Z,88.50
2024-04-22T15:56:19.101Z,90.20
2024-04-22T16:01:21.176Z,89.20
2024-04-22T16:06:23.081Z,91.50
2024-04-22T16:11:24.909Z,93.60
2024-04-22T16:16:27.581Z,96.00
2024-04-22T16:21:29.469Z,96.90
2024-04-22T16:26:31.691Z,99.70
2024-04-22T16:31:33.535Z,99.60
2024-04-22T16:36:35.439Z,99.90
2024-04-22T16:41:37.290Z,99.90
2024-04-22T16:46:39.456Z,99.90
2024-04-22T16:51:45.065Z,99.90
2024-04-22T16:56:47.046Z,99.90
2024-04-22T17:01:49.053Z,99.90
2024-04-22T17:06:50.925Z,99.90
2024-04-22T17:11:52.951Z,99.90
2024-04-22T17:16:54.833Z,99.90
2024-04-22T17:21:56.624Z,99.90
2024-04-22T17:27:00.896Z,99.90
2024-04-22T17:32:02.916Z,99.90
2024-04-22T17:37:04.991Z,99.90
2024-04-22T17:42:07.058Z,99.90
2024-04-22T17:47:08.889Z,99.90
2024-04-22T17:52:10.741Z,99.90
2024-04-22T17:57:12.582Z,99.90
2024-04-22T18:02:14.652Z,99.90
2024-04-22T18:07:16.509Z,99.90
2024-04-22T18:12:18.455Z,99.90
2024-04-22T18:17:20.359Z,99.90
2024-04-22T18:22:22.390Z,99.90
2024-04-22T18:27:28.435Z,99.90
2024-04-22T18:32:31.137Z,99.90
2024-04-22T18:37:33.532Z,99.90
2024-04-22T18:42:35.395Z,99.90
2024-04-22T18:47:37.322Z,99.90
2024-04-22T18:52:39.201Z,99.90
2024-04-22T18:57:41.089Z,99.90
2024-04-22T19:02:42.951Z,99.90
2024-04-22T19:07:47.348Z,99.90
2024-04-22T19:12:49.599Z,99.90
2024-04-22T19:17:52.529Z,99.90
2024-04-22T19:22:54.464Z,99.90
2024-04-22T19:27:56.414Z,99.90
2024-04-22T19:32:58.421Z,99.90
2024-04-22T19:38:02.790Z,99.90
2024-04-22T19:43:04.757Z,99.90
2024-04-22T19:48:07.182Z,99.90
2024-04-22T19:53:09.203Z,99.90
2024-04-22T19:58:11.555Z,99.90
2024-04-22T20:03:13.916Z,99.90
2024-04-22T20:08:15.835Z,99.90
2024-04-22T20:13:19.351Z,99.90
2024-04-22T20:18:29.257Z,99.90
2024-04-22T20:23:31.190Z,99.90
2024-04-22T20:28:33.475Z,99.90
2024-04-22T20:33:35.993Z,99.90
2024-04-22T20:38:38.028Z,99.90
2024-04-22T20:43:39.928Z,99.90
2024-04-22T20:48:41.877Z,99.90
2024-04-22T20:53:43.745Z,99.90
2024-04-22T20:58:46.099Z,99.90
2024-04-22T21:03:48.676Z,99.90
2024-04-22T21:08:50.596Z,99.90
2024-04-22T21:14:02.751Z,99.90
2024-04-22T21:19:11.612Z,99.90
2024-04-22T21:24:20.396Z,99.90
2024-04-22T21:29:22.199Z,99.90
2024-04-22T21:34:24.219Z,99.90
2024-04-22T21:39:26.538Z,99.90
2024-04-22T21:44:30.215Z,99.90
2024-04-22T21:49:32.164Z,99.90
2024-04-22T21:54:33.997Z,99.90
2024-04-22T22:00:13.339Z,99.90
2024-04-22T22:05:53.112Z,99.90
2024-04-22T22:10:56.248Z,99.90
2024-04-22T22:15:59.274Z,99.90
2024-04-22T22:21:01.163Z,99.90
2024-04-22T22:26:03.008Z,99.90
2024-04-22T22:31:05.099Z,99.90
2024-04-22T22:36:07.310Z,99.90
2024-04-22T22:41:09.135Z,99.90
2024-04-22T22:46:11.273Z,99.90
2024-04-22T22:51:13.089Z,99.90
2024-04-22T22:56:14.925Z,99.90
2024-04-22T23:01:16.800Z,99.90
2024-04-22T23:06:18.572Z,99.90
2024-04-22T23:11:20.580Z,99.90
2024-04-22T23:16:22.783Z,99.90
2024-04-22T23:21:24.678Z,99.90
2024-04-22T23:26:26.832Z,99.90
2024-04-22T23:31:28.651Z,99.90
2024-04-22T23:36:30.463Z,99.90
2024-04-22T23:41:32.268Z,99.90
2024-04-22T23:46:34.266Z,99.90
2024-04-22T23:51:36.053Z,99.90
2024-04-22T23:56:37.850Z,99.90
